createdAt,value
2018-10-05T00:00:43.050Z,98185.98
2018-10-05T00:03:12.627Z,98188.36
2018-10-05T00:05:42.494Z,98185.30
2018-10-05T00:08:12.018Z,98184.45
2018-10-05T00:10:41.506Z,98183.26
2018-10-05T00:13:11.195Z,98182.91
2018-10-05T00:15:40.936Z,98183.42
2018-10-05T00:18:10.623Z,98184.94
2018-10-05T00:20:41.476Z,98181.03
2018-10-05T00:23:11.262Z,98182.93
2018-10-05T00:25:41.287Z,98177.16
2018-10-05T00:28:10.831Z,98180.37
2018-10-05T00:30:40.667Z,98174.26
2018-10-05T00:33:10.727Z,98173.06
2018-10-05T00:35:40.270Z,98164.58
2018-10-05T00:38:10.055Z,98162.88
2018-10-05T00:40:39.843Z,98160.67
2018-10-05T00:43:09.484Z,98162.22
2018-10-05T00:45:39.154Z,98164.08
2018-10-05T00:48:08.650Z,98161.38
2018-10-05T00:50:38.116Z,98158.81
2018-10-05T00:53:08.096Z,98153.20
2018-10-05T00:55:37.851Z,98152.36
2018-10-05T00:58:08.956Z,98152.02
2018-10-05T01:00:38.665Z,98147.94
2018-10-05T01:03:08.560Z,98143.19
2018-10-05T01:05:38.018Z,98140.47
2018-10-05T01:08:07.477Z,98137.09
2018-10-05T01:10:37.185Z,98137.09
2018-10-05T01:13:07.246Z,98136.75
2018-10-05T01:15:37.125Z,98132.34
2018-10-05T01:18:06.913Z,98129.28
2018-10-05T01:20:36.386Z,98130.80
2018-10-05T01:23:05.858Z,98128.59
2018-10-05T01:25:35.305Z,98128.25
2018-10-05T01:28:05.206Z,98120.27
2018-10-05T01:30:35.138Z,98118.91
2018-10-05T01:33:04.682Z,98124.54
2018-10-05T01:35:34.238Z,98115.20
2018-10-05T01:38:03.744Z,98107.56
2018-10-05T01:40:33.201Z,98111.80
2018-10-05T01:43:03.366Z,98100.95
2018-10-05T01:45:33.176Z,98102.81
2018-10-05T01:48:02.752Z,98102.47
2018-10-05T01:50:32.564Z,98097.70
2018-10-05T01:53:02.626Z,98101.78
2018-10-05T01:55:32.071Z,98093.33
2018-10-05T01:58:01.534Z,98103.33
2018-10-05T02:00:31.311Z,98088.56
2018-10-05T02:03:01.418Z,98084.16
2018-10-05T02:05:30.867Z,98082.80
2018-10-05T02:08:00.850Z,98081.61
2018-10-05T02:10:30.393Z,98082.11
2018-10-05T02:13:00.430Z,98074.98
2018-10-05T02:15:30.537Z,98077.35
2018-10-05T02:18:00.532Z,98074.30
2018-10-05T02:20:30.237Z,98068.02
2018-10-05T02:23:00.090Z,98071.27
2018-10-05T02:25:29.845Z,98069.91
2018-10-05T02:28:00.085Z,98068.69
2018-10-05T02:30:29.796Z,98062.58
2018-10-05T02:32:59.519Z,98061.73
2018-10-05T02:35:29.450Z,98062.73
2018-10-05T02:37:59.012Z,98060.53
2018-10-05T02:40:29.144Z,98056.47
2018-10-05T02:42:58.965Z,98056.12
2018-10-05T02:45:28.651Z,98053.26
2018-10-05T02:47:58.273Z,98050.01
2018-10-05T02:50:28.434Z,98041.36
2018-10-05T02:52:58.353Z,98045.62
2018-10-05T02:55:28.308Z,98043.42
2018-10-05T02:57:58.186Z,98044.94
2018-10-05T03:00:38.881Z,98041.38
2018-10-05T03:03:09.421Z,98036.46
2018-10-05T03:05:39.154Z,98029.33
2018-10-05T03:08:09.279Z,98029.50
2018-10-05T03:10:38.982Z,98028.99
2018-10-05T03:13:08.792Z,98027.80
2018-10-05T03:15:38.661Z,98026.95
2018-10-05T03:18:08.368Z,98028.81
2018-10-05T03:20:38.525Z,98029.01
2018-10-05T03:23:08.183Z,98021.38
2018-10-05T03:25:37.957Z,98017.81
2018-10-05T03:28:07.674Z,98020.02
2018-10-05T03:30:38.367Z,98015.10
2018-10-05T03:35:32.666Z,98019.84
2018-10-05T03:38:02.838Z,98016.11
2018-10-05T03:40:32.470Z,98021.53
2018-10-05T03:43:02.121Z,98007.30
2018-10-05T03:45:31.735Z,98011.36
2018-10-05T03:48:02.074Z,98005.59
2018-10-05T03:50:31.761Z,98000.67
2018-10-05T03:53:01.785Z,98000.84
2018-10-05T03:55:31.814Z,98005.75
2018-10-05T03:58:01.605Z,98004.05
2018-10-05T04:00:31.765Z,97998.83
2018-10-05T04:03:02.232Z,98003.40
2018-10-05T04:05:31.981Z,98002.55
2018-10-05T04:08:01.762Z,98000.51
2018-10-05T04:10:31.562Z,97995.75
2018-10-05T04:13:01.755Z,97992.19
2018-10-05T04:15:31.583Z,97993.20
2018-10-05T04:18:01.802Z,97994.56
2018-10-05T04:20:32.083Z,97987.13
2018-10-05T04:23:02.318Z,97983.06
2018-10-05T04:25:32.172Z,97986.28
2018-10-05T04:28:02.170Z,97977.96
2018-10-05T04:30:32.185Z,97975.59
2018-10-05T04:33:02.093Z,97970.68
2018-10-05T04:35:32.079Z,97975.25
2018-10-05T04:38:02.462Z,97977.11
2018-10-05T04:40:32.417Z,97971.34
2018-10-05T04:43:02.167Z,97971.19
2018-10-05T04:45:32.182Z,97967.46
2018-10-05T04:48:02.422Z,97967.10
2018-10-05T04:50:32.775Z,97972.03
2018-10-05T04:53:03.517Z,97961.88
2018-10-05T04:55:33.226Z,97973.06
2018-10-05T04:58:03.107Z,97967.14
2018-10-05T05:00:33.308Z,97964.23
2018-10-05T05:03:04.934Z,97969.84
2018-10-05T05:05:34.639Z,97967.63
2018-10-05T05:08:04.498Z,97961.88
2018-10-05T05:10:35.567Z,97956.11
2018-10-05T05:13:05.882Z,97955.61
2018-10-05T05:15:35.939Z,97957.45
2018-10-05T05:18:05.589Z,97961.89
2018-10-05T05:20:35.421Z,97957.64
2018-10-05T05:23:05.613Z,97957.31
2018-10-05T05:25:35.609Z,97953.92
2018-10-05T05:28:07.644Z,97948.34
2018-10-05T05:30:37.637Z,97952.75
2018-10-05T05:33:09.124Z,97950.18
2018-10-05T05:35:41.379Z,97946.45
2018-10-05T05:38:11.037Z,97952.55
2018-10-05T05:40:40.758Z,97949.17
2018-10-05T05:43:10.682Z,97946.61
2018-10-05T05:45:40.525Z,97941.01
2018-10-05T05:48:10.656Z,97941.49
2018-10-05T05:50:40.845Z,97945.92
2018-10-05T05:53:10.899Z,97941.52
2018-10-05T05:55:40.594Z,97937.78
2018-10-05T05:58:10.466Z,97939.48
2018-10-05T06:00:42.586Z,97941.34
2018-10-05T06:03:14.734Z,97936.26
2018-10-05T06:05:46.108Z,97932.53
2018-10-05T06:08:16.437Z,97936.60
2018-10-05T06:10:47.655Z,97939.66
2018-10-05T06:13:25.258Z,97941.35
2018-10-05T06:15:56.294Z,97943.56
2018-10-05T06:18:26.124Z,97940.14
2018-10-05T06:20:56.190Z,97942.69
2018-10-05T06:23:26.088Z,97944.89
2018-10-05T06:25:56.488Z,97946.93
2018-10-05T06:28:27.733Z,97944.72
2018-10-05T06:30:57.955Z,97944.05
2018-10-05T06:33:28.151Z,97944.22
2018-10-05T06:35:58.009Z,97941.67
2018-10-05T06:38:28.000Z,97941.81
2018-10-05T06:40:58.466Z,97939.09
2018-10-05T06:43:28.014Z,97944.36
2018-10-05T06:46:01.260Z,97941.47
2018-10-05T06:48:31.606Z,97943.68
2018-10-05T06:51:02.910Z,97948.94
2018-10-05T06:53:32.599Z,97944.20
2018-10-05T06:56:02.257Z,97943.83
2018-10-05T06:58:32.702Z,97942.67
2018-10-05T07:01:03.055Z,97945.52
2018-10-05T07:03:33.139Z,97931.78
2018-10-05T07:06:02.889Z,97936.53
2018-10-05T07:08:32.557Z,97936.53
2018-10-05T07:11:02.277Z,97932.09
2018-10-05T07:13:31.959Z,97936.30
2018-10-05T07:16:01.709Z,97931.55
2018-10-05T07:18:32.151Z,97933.41
2018-10-05T07:21:02.438Z,97936.80
2018-10-05T07:23:32.085Z,97936.77
2018-10-05T07:26:02.048Z,97936.94
2018-10-05T07:28:36.285Z,97936.77
2018-10-05T07:31:08.846Z,97933.34
2018-10-05T07:33:39.301Z,97934.69
2018-10-05T07:36:09.419Z,97935.23
2018-10-05T07:38:40.299Z,97926.57
2018-10-05T07:41:10.044Z,97926.70
2018-10-05T07:43:39.721Z,97930.77
2018-10-05T07:46:10.339Z,97930.94
2018-10-05T07:48:41.044Z,97929.72
2018-10-05T07:51:11.487Z,97928.86
2018-10-05T07:53:41.466Z,97924.61
2018-10-05T07:56:11.506Z,97923.55
2018-10-05T07:58:41.154Z,97931.19
2018-10-05T08:01:11.232Z,97930.50
2018-10-05T08:03:40.846Z,97925.36
2018-10-05T08:06:11.152Z,97929.44
2018-10-05T08:08:40.968Z,97924.16
2018-10-05T08:11:12.234Z,97928.03
2018-10-05T08:13:42.964Z,97924.96
2018-10-05T08:16:12.656Z,97933.28
2018-10-05T08:18:42.788Z,97936.46
2018-10-05T08:21:12.761Z,97936.80
2018-10-05T08:23:44.176Z,97929.14
2018-10-05T08:26:13.715Z,97933.38
2018-10-05T08:28:43.510Z,97924.50
2018-10-05T08:31:13.747Z,97927.72
2018-10-05T08:33:43.883Z,97920.75
2018-10-05T08:36:13.579Z,97927.70
2018-10-05T08:38:43.470Z,97917.98
2018-10-05T08:41:13.421Z,97917.63
2018-10-05T08:43:43.290Z,97918.45
2018-10-05T08:46:13.053Z,97922.16
2018-10-05T08:48:42.664Z,97919.26
2018-10-05T08:51:13.324Z,97910.76
2018-10-05T08:53:43.182Z,97920.27
2018-10-05T08:56:13.306Z,97909.72
2018-10-05T08:58:43.093Z,97915.80
2018-10-05T09:01:13.381Z,97908.81
2018-10-05T09:03:43.592Z,97906.28
2018-10-05T09:06:13.286Z,97905.20
2018-10-05T09:08:43.165Z,97899.97
2018-10-05T09:11:13.149Z,97899.59
2018-10-05T09:13:43.194Z,97893.61
2018-10-05T09:16:13.915Z,97889.98
2018-10-05T09:18:44.197Z,97899.33
2018-10-05T09:21:16.114Z,97898.13
2018-10-05T09:23:47.594Z,97886.72
2018-10-05T09:26:17.360Z,97880.59
2018-10-05T09:28:48.900Z,97878.14
2018-10-05T09:31:19.819Z,97873.36
2018-10-05T09:33:49.851Z,97885.25
2018-10-05T09:36:20.092Z,97874.66
2018-10-05T09:38:50.281Z,97862.39
2018-10-05T09:41:20.033Z,97857.27
2018-10-05T09:43:50.293Z,97847.38
2018-10-05T09:46:20.569Z,97849.56
2018-10-05T09:48:50.830Z,97845.11
2018-10-05T09:51:26.176Z,97850.70
2018-10-05T09:53:56.830Z,97838.06
2018-10-05T09:56:26.479Z,97842.48
2018-10-05T09:58:57.113Z,97835.48
2018-10-05T10:01:32.085Z,97834.97
2018-10-05T10:04:01.931Z,97831.88
2018-10-05T10:06:31.780Z,97823.86
2018-10-05T10:09:03.674Z,97829.30
2018-10-05T10:11:33.821Z,97829.94
2018-10-05T10:14:04.182Z,97830.27
2018-10-05T10:16:34.324Z,97823.80
2018-10-05T10:19:04.434Z,97810.84
2018-10-05T10:21:34.335Z,97821.55
2018-10-05T10:24:03.972Z,97819.16
2018-10-05T10:26:33.710Z,97813.37
2018-10-05T10:29:04.337Z,97816.03
2018-10-05T10:31:34.365Z,97809.04
2018-10-05T10:34:04.789Z,97797.63
2018-10-05T10:36:35.476Z,97805.28
2018-10-05T10:39:05.787Z,97797.44
2018-10-05T10:41:36.188Z,97789.42
2018-10-05T10:44:06.655Z,97790.45
2018-10-05T10:46:36.706Z,97781.55
2018-10-05T10:49:07.811Z,97779.48
2018-10-05T10:51:37.569Z,97776.75
2018-10-05T10:54:07.432Z,97770.09
2018-10-05T10:56:37.193Z,97770.45
2018-10-05T10:59:07.137Z,97760.41
2018-10-05T11:01:36.934Z,97766.80
2018-10-05T11:04:07.238Z,97765.44
2018-10-05T11:06:37.045Z,97761.91
2018-10-05T11:09:09.889Z,97753.00
2018-10-05T11:11:41.112Z,97750.60
2018-10-05T11:14:11.257Z,97748.72
2018-10-05T11:16:41.530Z,97747.17
2018-10-05T11:19:11.390Z,97743.60
2018-10-05T11:21:42.269Z,97735.25
2018-10-05T11:24:12.213Z,97734.73
2018-10-05T11:26:41.843Z,97730.13
2018-10-05T11:29:15.929Z,97724.78
2018-10-05T11:31:45.709Z,97714.44
2018-10-05T11:34:21.162Z,97719.14
2018-10-05T11:37:05.135Z,97714.02
2018-10-05T11:39:36.630Z,97708.25
2018-10-05T11:42:12.876Z,97711.62
2018-10-05T11:44:43.294Z,97710.59
2018-10-05T11:47:15.886Z,97696.64
2018-10-05T11:49:45.785Z,97703.78
2018-10-05T11:52:15.880Z,97692.37
2018-10-05T11:54:45.842Z,97699.50
2018-10-05T11:57:16.388Z,97699.83
2018-10-05T11:59:46.234Z,97695.75
2018-10-05T12:02:15.884Z,97693.02
2018-10-05T12:04:45.716Z,97693.64
2018-10-05T12:07:16.928Z,97682.75
2018-10-05T12:09:48.309Z,97677.63
2018-10-05T12:12:19.930Z,97675.41
2018-10-05T12:14:50.713Z,97667.05
2018-10-05T12:17:21.143Z,97666.72
2018-10-05T12:19:50.924Z,97663.29
2018-10-05T12:22:21.101Z,97657.52
2018-10-05T12:24:51.678Z,97668.22
2018-10-05T12:27:21.342Z,97656.80
2018-10-05T12:29:51.733Z,97654.41
2018-10-05T12:32:21.446Z,97653.56
2018-10-05T12:34:51.274Z,97648.44
2018-10-05T12:37:21.131Z,97646.56
2018-10-05T12:39:51.426Z,97646.04
2018-10-05T12:42:21.715Z,97640.59
2018-10-05T12:44:52.374Z,97639.75
2018-10-05T12:47:26.382Z,97641.77
2018-10-05T12:49:56.348Z,97633.59
2018-10-05T12:52:26.525Z,97630.86
2018-10-05T12:54:57.520Z,97635.57
2018-10-05T12:57:27.286Z,97632.84
2018-10-05T12:59:57.492Z,97628.23
2018-10-05T13:02:29.146Z,97627.72
2018-10-05T13:05:01.972Z,97627.20
2018-10-05T13:07:38.648Z,97625.32
2018-10-05T13:10:08.708Z,97622.41
2018-10-05T13:12:38.737Z,97618.83
2018-10-05T13:15:09.611Z,97616.95
2018-10-05T13:17:40.831Z,97616.95
2018-10-05T13:20:10.577Z,97615.07
2018-10-05T13:22:40.190Z,97612.15
2018-10-05T13:25:10.183Z,97610.27
2018-10-05T13:27:40.090Z,97595.80
2018-10-05T13:30:10.287Z,97598.85
2018-10-05T13:32:40.549Z,97597.81
2018-10-05T13:35:11.354Z,97591.81
2018-10-05T13:37:41.168Z,97588.05
2018-10-05T13:40:10.806Z,97586.17
2018-10-05T13:42:41.226Z,97575.78
2018-10-05T13:45:10.736Z,97569.48
2018-10-05T13:47:41.646Z,97567.93
2018-10-05T13:50:13.859Z,97567.41
2018-10-05T13:52:43.756Z,97570.14
2018-10-05T13:55:13.758Z,97564.69
2018-10-05T13:57:44.573Z,97560.41
2018-10-05T14:00:14.988Z,97561.44
2018-10-05T14:02:45.207Z,97550.22
2018-10-05T14:05:17.867Z,97557.35
2018-10-05T14:07:55.171Z,97553.59
2018-10-05T14:10:24.983Z,97548.46
2018-10-05T14:12:54.701Z,97540.80
2018-10-05T14:15:26.378Z,97539.77
2018-10-05T14:17:58.160Z,97541.45
2018-10-05T14:20:30.152Z,97536.84
2018-10-05T14:23:01.409Z,97534.13
2018-10-05T14:25:32.458Z,97528.66
2018-10-05T14:28:02.251Z,97523.22
2018-10-05T14:30:32.609Z,97518.61
2018-10-05T14:33:02.809Z,97517.02
2018-10-05T14:35:32.562Z,97505.82
2018-10-05T14:38:02.977Z,97508.03
2018-10-05T14:40:33.024Z,97504.46
2018-10-05T14:43:05.145Z,97499.84
2018-10-05T14:45:35.131Z,97497.64
2018-10-05T14:48:05.415Z,97492.19
2018-10-05T14:50:35.231Z,97492.19
2018-10-05T14:53:05.421Z,97493.84
2018-10-05T14:55:36.394Z,97485.37
2018-10-05T14:58:06.944Z,97483.78
2018-10-05T15:00:38.351Z,97482.42
2018-10-05T15:03:15.627Z,97478.85
2018-10-05T15:05:46.265Z,97481.06
2018-10-05T15:08:16.804Z,97460.00
2018-10-05T15:10:50.278Z,97462.20
2018-10-05T15:13:20.010Z,97457.27
2018-10-05T15:15:49.710Z,97450.46
2018-10-05T15:18:22.510Z,97454.03
2018-10-05T15:20:56.876Z,97445.73
2018-10-05T15:23:28.727Z,97450.86
2018-10-05T15:25:59.905Z,97442.36
2018-10-05T15:28:30.532Z,97444.44
2018-10-05T15:31:00.653Z,97435.64
2018-10-05T15:33:32.371Z,97434.80
2018-10-05T15:36:02.268Z,97435.84
2018-10-05T15:38:32.301Z,97434.16
2018-10-05T15:41:02.175Z,97433.31
2018-10-05T15:43:33.168Z,97431.83
2018-10-05T15:46:09.064Z,97432.34
2018-10-05T15:48:39.092Z,97430.66
2018-10-05T15:51:10.045Z,97436.53
2018-10-05T15:53:43.226Z,97439.13
2018-10-05T15:56:13.778Z,97436.28
2018-10-05T15:58:43.826Z,97436.80
2018-10-05T16:01:14.206Z,97431.55
2018-10-05T16:03:44.320Z,97434.17
2018-10-05T16:06:14.402Z,97437.62
2018-10-05T16:08:44.171Z,97434.96
2018-10-05T16:11:16.334Z,97430.03
2018-10-05T16:13:47.395Z,97433.50
2018-10-05T16:16:17.952Z,97433.70
2018-10-05T16:18:48.790Z,97436.94
2018-10-05T16:21:19.685Z,97436.81
2018-10-05T16:23:50.822Z,97442.13
2018-10-05T16:26:20.770Z,97434.38
2018-10-05T16:28:51.315Z,97439.15
2018-10-05T16:31:22.010Z,97436.62
2018-10-05T16:33:52.170Z,97438.38
2018-10-05T16:36:23.719Z,97440.58
2018-10-05T16:39:01.686Z,97437.11
2018-10-05T16:41:31.570Z,97439.37
2018-10-05T16:44:03.199Z,97437.91
2018-10-05T16:46:36.412Z,97431.48
2018-10-05T16:49:16.059Z,97437.65
2018-10-05T16:51:54.044Z,97433.43
2018-10-05T16:54:33.825Z,97436.05
2018-10-05T16:57:05.160Z,97431.00
2018-10-05T16:59:37.276Z,97428.14
2018-10-05T17:02:07.349Z,97428.56
2018-10-05T17:04:37.738Z,97428.10
2018-10-05T17:07:09.314Z,97426.09
2018-10-05T17:09:40.833Z,97431.44
2018-10-05T17:12:12.042Z,97428.58
2018-10-05T17:14:48.564Z,97426.56
2018-10-05T17:17:20.368Z,97431.03
2018-10-05T17:19:50.523Z,97431.45
2018-10-05T17:22:23.987Z,97420.94
2018-10-05T17:24:55.087Z,97422.69
2018-10-05T17:27:25.442Z,97431.91
2018-10-05T17:29:55.965Z,97424.66
2018-10-05T17:32:26.439Z,97416.36
2018-10-05T17:34:57.688Z,97416.44
2018-10-05T17:37:28.154Z,97419.67
2018-10-05T17:39:58.729Z,97418.70
2018-10-05T17:42:28.573Z,97419.73
2018-10-05T17:44:59.557Z,97419.30
2018-10-05T17:47:29.710Z,97420.33
2018-10-05T17:49:59.983Z,97415.27
2018-10-05T17:52:30.618Z,97412.23
2018-10-05T17:55:01.617Z,97412.05
2018-10-05T17:57:31.662Z,97407.88
2018-10-05T18:00:01.796Z,97407.88
2018-10-05T18:02:31.650Z,97410.78
2018-10-05T18:05:01.362Z,97414.53
2018-10-05T18:07:32.145Z,97412.00
2018-10-05T18:10:02.311Z,97410.32
2018-10-05T18:12:32.786Z,97409.98
2018-10-05T18:15:02.762Z,97409.66
2018-10-05T18:17:34.747Z,97403.52
2018-10-05T18:20:04.515Z,97404.12
2018-10-05T18:22:35.162Z,97396.25
2018-10-05T18:25:05.604Z,97394.03
2018-10-05T18:27:37.785Z,97401.16
2018-10-05T18:30:08.841Z,97394.69
2018-10-05T18:32:39.454Z,97395.85
2018-10-05T18:35:10.111Z,97389.05
2018-10-05T18:37:40.538Z,97390.19
2018-10-05T18:40:14.214Z,97384.88
2018-10-05T18:42:44.126Z,97385.21
2018-10-05T18:45:13.803Z,97386.89
2018-10-05T18:47:44.364Z,97384.17
2018-10-05T18:50:14.215Z,97390.27
2018-10-05T18:52:44.704Z,97394.54
2018-10-05T18:55:15.166Z,97386.70
2018-10-05T18:57:45.782Z,97384.93
2018-10-05T19:00:16.094Z,97384.73
2018-10-05T19:02:46.690Z,97385.39
2018-10-05T19:05:17.788Z,97382.99
2018-10-05T19:07:49.484Z,97374.83
2018-10-05T19:10:19.369Z,97380.92
2018-10-05T19:12:49.144Z,97378.72
2018-10-05T19:15:19.327Z,97380.73
2018-10-05T19:17:49.435Z,97381.77
2018-10-05T19:20:20.450Z,97379.66
2018-10-05T19:22:51.669Z,97376.42
2018-10-05T19:25:21.654Z,97377.79
2018-10-05T19:27:52.339Z,97382.20
2018-10-05T19:30:22.718Z,97386.60
2018-10-05T19:32:52.678Z,97376.05
2018-10-05T19:35:26.890Z,97369.56
2018-10-05T19:38:05.003Z,97368.20
2018-10-05T19:40:34.606Z,97369.05
2018-10-05T19:43:04.493Z,97368.86
2018-10-05T19:45:35.493Z,97365.29
2018-10-05T19:48:05.841Z,97359.84
2018-10-05T19:50:36.284Z,97362.57
2018-10-05T19:53:06.958Z,97362.15
2018-10-05T19:55:36.752Z,97359.43
2018-10-05T19:58:06.761Z,97365.20
2018-10-05T20:00:36.557Z,97361.34
2018-10-05T20:03:06.678Z,97361.63
2018-10-05T20:05:37.080Z,97360.59
2018-10-05T20:08:07.198Z,97358.20
2018-10-05T20:10:37.773Z,97364.16
2018-10-05T20:13:08.307Z,97349.39
2018-10-05T20:15:39.478Z,97348.96
2018-10-05T20:18:09.785Z,97343.33
2018-10-05T20:20:39.688Z,97345.40
2018-10-05T20:23:10.782Z,97346.44
2018-10-05T20:25:41.183Z,97347.47
2018-10-05T20:28:12.152Z,97343.72
2018-10-05T20:30:42.811Z,97339.11
2018-10-05T20:33:13.785Z,97340.99
2018-10-05T20:35:44.435Z,97339.31
2018-10-05T20:38:15.353Z,97340.34
2018-10-05T20:40:46.357Z,97341.51
2018-10-05T20:43:16.332Z,97336.06
2018-10-05T20:45:47.447Z,97343.39
2018-10-05T20:48:20.032Z,97331.66
2018-10-05T20:50:50.106Z,97326.93
2018-10-05T20:53:20.445Z,97325.89
2018-10-05T20:55:50.682Z,97329.45
2018-10-05T20:58:21.080Z,97328.29
2018-10-05T21:00:51.086Z,97327.67
2018-10-05T21:03:22.482Z,97335.51
2018-10-05T21:05:52.469Z,97332.14
2018-10-05T21:08:24.089Z,97324.82
2018-10-05T21:10:55.678Z,97322.30
2018-10-05T21:13:26.113Z,97323.14
2018-10-05T21:15:56.420Z,97322.30
2018-10-05T21:18:26.573Z,97320.09
2018-10-05T21:20:56.426Z,97321.45
2018-10-05T21:23:27.701Z,97319.25
2018-10-05T21:25:58.486Z,97327.60
2018-10-05T21:28:29.031Z,97326.56
2018-10-05T21:30:58.779Z,97330.52
2018-10-05T21:33:28.676Z,97325.63
2018-10-05T21:36:00.220Z,97321.55
2018-10-05T21:38:33.906Z,97321.00
2018-10-05T21:41:03.850Z,97326.66
2018-10-05T21:43:34.533Z,97327.70
2018-10-05T21:46:05.706Z,97322.77
2018-10-05T21:48:35.667Z,97321.73
2018-10-05T21:51:08.195Z,97322.77
2018-10-05T21:53:38.458Z,97321.09
2018-10-05T21:56:09.563Z,97320.77
2018-10-05T21:58:39.587Z,97317.20
2018-10-05T22:01:10.744Z,97322.12
2018-10-05T22:03:45.988Z,97318.56
2018-10-05T22:06:17.079Z,97315.19
2018-10-05T22:08:47.124Z,97320.11
2018-10-05T22:11:19.095Z,97317.91
2018-10-05T22:13:49.401Z,97317.91
2018-10-05T22:16:20.866Z,97313.50
2018-10-05T22:18:50.933Z,97314.25
2018-10-05T22:21:20.987Z,97315.38
2018-10-05T22:23:50.768Z,97318.33
2018-10-05T22:26:21.236Z,97311.01
2018-10-05T22:28:52.187Z,97304.41
2018-10-05T22:31:22.166Z,97302.72
2018-10-05T22:33:52.252Z,97303.23
2018-10-05T22:36:22.029Z,97299.67
2018-10-05T22:38:51.894Z,97307.31
2018-10-05T22:41:22.431Z,97299.67
2018-10-05T22:43:52.361Z,97288.95
2018-10-05T22:46:22.206Z,97292.38
2018-10-05T22:48:52.145Z,97290.18
2018-10-05T22:51:22.128Z,97290.70
2018-10-05T22:53:52.153Z,97290.70
2018-10-05T22:56:22.147Z,97290.41
2018-10-05T22:58:51.868Z,97292.06
2018-10-05T23:01:21.478Z,97292.61
2018-10-05T23:03:51.616Z,97285.81
2018-10-05T23:06:21.412Z,97284.64
2018-10-05T23:08:51.250Z,97281.41
2018-10-05T23:11:21.737Z,97281.59
2018-10-05T23:13:51.455Z,97281.27
2018-10-05T23:16:21.387Z,97279.59
2018-10-05T23:18:51.600Z,97279.59
2018-10-05T23:21:21.788Z,97285.87
2018-10-05T23:23:51.426Z,97283.66
2018-10-05T23:26:21.051Z,97276.02
2018-10-05T23:28:51.120Z,97275.89
2018-10-05T23:31:21.430Z,97274.20
2018-10-05T23:33:51.714Z,97275.14
2018-10-05T23:36:21.915Z,97276.56
2018-10-05T23:38:51.515Z,97272.89
2018-10-05T23:41:21.308Z,97268.17
2018-10-05T23:43:51.480Z,97271.78
2018-10-05T23:46:21.459Z,97273.86
2018-10-05T23:48:51.690Z,97268.31
2018-10-05T23:51:21.457Z,97262.23
2018-10-05T23:53:51.211Z,97262.42
2018-10-05T23:56:20.893Z,97254.97
2018-10-05T23:58:50.725Z,97256.55
